Agness, OR

9:13 AM PDT on September 30, 2014 (GMT -0700)
Roseburg Regional | Change Station
CLOSE
Current Station
Airport
Location: Roseburg,
Elevation: 525 ft
Nearby Weather Stations

Elev 525 ft 43.24 °N, 123.36 °W | Updated 20 minutes ago

Partly Cloudy
Partly Cloudy
54 °F
Feels Like 54 °F
N
0
Wind Variable Wind from North

Today
High -- | Low -- °F
--% Chance of Precip.
Yesterday
High -- | Low -- °F
Precip. -- in
7:12 AM 6:59 PM
Waxing Crescent, 38% visible
Pressure 30.18 in
Visibility 4.0 miles
Clouds Overcast 400 ft
Dew Point 51 °F
Humidity 90%
Rainfall 0.00 in
Snow Depth 0 in , 0 in , 0 in
UV 0 out of 12
Pollen 3.40 out of 12
Air Quality Not available.
Flu Activity Not available.
METAR KRBG 301553Z AUTO 00000KT 4SM BR OVC004 12/11 A3018 RMK AO2 SLP218 T01220106

More Conditions Fewer Conditions

Pressure 30.18 in
Visibility 4.0 miles
Clouds Overcast 400 ft
Dew Point 51 °F
Humidity 90%
Rainfall 0.00 in
Snow Depth 0 in , 0 in , 0 in
UV 0 out of 12
Pollen 3.40 out of 12
Air Quality Not available.
Flu Activity Not available.
METAR KRBG 301553Z AUTO 00000KT 4SM BR OVC004 12/11 A3018 RMK AO2 SLP218 T01220106

More Conditions Fewer Conditions

10-Day Weather Forecast

Almanac

Astronomy

Sep. 30, 2014 Rise Set
Actual Time 7:12 AM PDT 6:59 PM PDT
Civil Twilight 6:44 AM PDT 7:27 PM PDT
Nautical Twilight 6:11 AM PDT 7:59 PM PDT
Astronomical Twilight 5:38 AM PDT 8:33 PM PDT
Moon 1:31 PM PDT 11:29 PM PDT
Length of Visible Light 12h 42m
Length of Day
11h 46m
Tomorrow will be 2m 52s shorter.
Waxing Crescent, 38% of the Moon is Illuminated
Today
Waxing Crescent
Oct 1
First Quarter
Oct 8
Full
Oct 15
Last Quarter
Oct 23
New

Today's Extremes

State Highs State Lows

Community

WunderPhotos

Upload Photos

1,757,675 photos uploaded!

Nearby

Snow Depth

Station Depth Elevation
New Crescent Lake 0 in 4800 ft
Tipton 0 in 5150 ft
Fish Lake 0 in 4665 ft
Strawberry 0 in 5760 ft
Lucky Strike 2 in 5050 ft

Earthquake Activity

City Distance Mag. Time & Date
Ferndale, California 149 miles 3.0 6:53 AM PDT
2014-09-28
Minimum magnitude displayed is 2.5.

Coastal Water Temperatures

Place Temperature
Port Orford, OR 57.0 °F
Crescent City, CA 62.1 °F
Charleston, OR 57.0 °F

Nearby Weather Stations